AEY weather

Akureyri Airport
Akureyri, Northeastern Region, Iceland

Public forecast

Using degrees Celsius for public forecast. Weather courtesy of forecast.io.

Current aviation weather report (METAR) for Akureyri Airport

Retrieved 2019/10/18 09:00 UTC (41 minutes ago):

BIAR 180900Z 10006KT 060V130 9999 BKN040 02/M04 Q1020 RMK WIND VADLAHEIDI 09012KT

Aviation forecast (TAF) for Akureyri Airport

Retrieved 2019/10/18 09:33 UTC (8 minutes ago):

TAF TAF BIAR 180729Z 1809/1909 17005KT 9999 SCT035 TX03/1815Z TNM03/1903Z BECMG 1809/1811 CAVOK